Skip Navigation LinksHome page > Weather > Current weather Skip Navigation Links

Current Weather

Central Park, New York

For information only: do not use for flight planning or navigation.
Latest weather
Observation time Monday, June 29, 2015 10:51 PM EDT
Local time Monday, June 29, 2015 11:29 PM EDT
Flight conditions Visual Meteorological Conditions
Winds
Wind direction variable
Wind speed 3 mph
Visibility 10 mi.
Sky condition
Ceiling unlimited
Sky clear
Temperature 72°F
Dewpoint 56°F
Altimeter 29.97 in.Hg
Pressure change last 3 hours-0.04 in.Hg
Pressure rising more slowly
Derived measurements
Relative humidity 57%
Density altitude 1154 ft.
Sea-level pressure 29.95 in.Hg
Remarks
Fully automated report.
System requires maintenance.
Automated weather observing station with precipitation discriminator.
METAR KNYC 300251Z AUTO VRB03KT 10SM CLR 22/13 A2997 RMK AO2 SLP141 T02220133 51013 $

Settings

Location code

InnerDrive.Weather 4.0.5567.0 Release CLR 4.0.30319.34014
Copyright ©2015 Inner Drive Technology. All rights reserved. Portions Copyright ©1986-2015 David Braverman.

Find weather

Site navigation


Skip Navigation Links

Place info

Page info

PayPal - The safer, easier way to pay online!

Return home.

Copyright ©2015 Inner Drive Technology. Purveyors of fine, hand-crafted computer software. Page printed 2015-06-30T03:29:36 UTC.